Time;durP1;ratioP1;P1;durP2;ratioP2;P2;SDS_P1;SDS_P2;PMS_P1;PMS_P2;Temp;Humidity;BMP_temperature;BMP_pressure;BME280_temperature;BME280_humidity;BME280_pressure;Samples;Min_cycle;Max_cycle;Signal;HPM_P1;HPM_P2
2021/01/21 00:00:31;;;;;;;2.00;1.53;;;12.40;93.90;;;;;;6128717;23;20435;-82
2021/01/21 00:02:58;;;;;;;5.03;1.00;;;12.60;93.90;;;;;;6153865;23;20795;-80
2021/01/21 00:05:24;;;;;;;1.47;1.30;;;12.80;93.40;;;;;;6127552;23;20465;-82
2021/01/21 00:07:50;;;;;;;3.87;1.23;;;12.80;93.20;;;;;;6144145;23;20449;-80
2021/01/21 00:10:17;;;;;;;1.23;1.13;;;12.80;93.10;;;;;;6162743;23;20526;-82
2021/01/21 00:12:43;;;;;;;1.33;1.07;;;12.70;93.20;;;;;;6154443;23;20489;-82
2021/01/21 00:15:09;;;;;;;2.17;1.07;;;12.80;93.20;;;;;;6151341;23;20510;-84
2021/01/21 00:17:36;;;;;;;1.57;1.20;;;12.70;93.20;;;;;;6152965;23;20415;-82
2021/01/21 00:20:05;;;;;;;2.43;1.57;;;12.60;93.40;;;;;;6152029;23;20482;-80
2021/01/21 00:22:31;;;;;;;3.37;1.50;;;12.60;93.80;;;;;;6126325;23;20445;-82
2021/01/21 00:24:58;;;;;;;2.27;1.37;;;12.80;93.40;;;;;;6151679;23;20928;-80
2021/01/21 00:27:24;;;;;;;2.20;1.10;;;12.80;93.30;;;;;;6125599;23;20414;-81
2021/01/21 00:29:51;;;;;;;1.80;1.00;;;12.70;93.20;;;;;;6125021;23;20517;-83
2021/01/21 00:32:17;;;;;;;2.13;1.00;;;12.70;93.20;;;;;;6126065;23;21114;-82
2021/01/21 00:34:44;;;;;;;0.70;0.70;;;12.70;93.00;;;;;;6154427;23;20495;-81
2021/01/21 00:37:10;;;;;;;2.63;1.10;;;12.70;93.10;;;;;;6155803;23;20403;-81
2021/01/21 00:39:37;;;;;;;1.50;0.90;;;12.70;93.10;;;;;;6128778;23;20419;-84
2021/01/21 00:42:03;;;;;;;6.60;1.17;;;12.70;92.90;;;;;;6128038;23;20466;-84
2021/01/21 00:44:29;;;;;;;2.07;1.10;;;12.70;93.00;;;;;;6127399;23;20434;-82
2021/01/21 00:46:59;;;;;;;1.90;1.60;;;12.70;92.90;;;;;;6133115;23;20439;-82
2021/01/21 00:49:25;;;;;;;4.10;1.13;;;12.70;92.80;;;;;;6129849;23;20415;-82
2021/01/21 00:51:52;;;;;;;1.63;1.50;;;12.60;93.10;;;;;;6126262;23;20399;-83
2021/01/21 00:54:19;;;;;;;1.77;1.37;;;12.70;93.10;;;;;;6125343;23;20410;-84
2021/01/21 00:56:45;;;;;;;1.77;0.97;;;12.70;92.90;;;;;;6126741;23;20426;-82
2021/01/21 00:59:11;;;;;;;1.40;1.30;;;12.60;93.10;;;;;;6152791;23;20498;-81
2021/01/21 01:01:38;;;;;;;2.80;1.43;;;12.70;92.90;;;;;;6152573;23;20550;-81
2021/01/21 01:04:04;;;;;;;3.23;1.27;;;12.60;92.80;;;;;;6152626;23;20462;-82
2021/01/21 01:06:30;;;;;;;1.20;0.93;;;12.70;92.70;;;;;;6151264;23;20960;-83
2021/01/21 01:08:57;;;;;;;1.53;1.00;;;12.70;92.80;;;;;;6127213;23;20442;-83
2021/01/21 01:11:23;;;;;;;2.73;1.17;;;12.70;92.60;;;;;;6125924;23;20419;-82
2021/01/21 01:13:50;;;;;;;1.40;1.30;;;12.70;92.40;;;;;;6126915;23;20415;-83
2021/01/21 01:16:16;;;;;;;1.90;1.00;;;12.70;92.60;;;;;;6152942;23;20691;-80
2021/01/21 01:18:42;;;;;;;1.00;0.87;;;12.70;92.50;;;;;;6128006;23;20450;-82
2021/01/21 01:21:11;;;;;;;4.40;1.00;;;12.70;92.50;;;;;;6168942;23;20434;-79
2021/01/21 01:23:38;;;;;;;3.37;1.47;;;12.70;92.50;;;;;;6147644;23;20430;-81
2021/01/21 01:26:04;;;;;;;1.80;1.17;;;12.60;92.50;;;;;;6147976;23;20434;-80
2021/01/21 01:28:31;;;;;;;1.23;0.60;;;12.60;92.60;;;;;;6173040;23;20403;-81
2021/01/21 01:30:57;;;;;;;1.90;1.20;;;12.50;92.90;;;;;;6148385;23;20399;-81
2021/01/21 01:33:24;;;;;;;2.47;1.20;;;12.50;92.70;;;;;;6147976;23;20411;-81
2021/01/21 01:35:51;;;;;;;0.90;0.90;;;12.50;92.80;;;;;;6147573;23;20509;-81
2021/01/21 01:38:17;;;;;;;0.93;0.93;;;12.50;92.70;;;;;;6146710;23;20411;-80
2021/01/21 01:40:43;;;;;;;1.63;1.00;;;12.60;92.70;;;;;;6165714;23;20454;-81
2021/01/21 01:43:10;;;;;;;1.53;1.43;;;12.60;92.30;;;;;;6129062;23;20859;-81
2021/01/21 01:45:37;;;;;;;1.87;1.30;;;12.60;92.30;;;;;;6123305;23;20439;-82
2021/01/21 01:48:04;;;;;;;1.83;1.13;;;12.80;92.10;;;;;;6121329;23;20411;-81
2021/01/21 01:50:30;;;;;;;1.60;1.00;;;12.70;92.10;;;;;;6145686;23;20434;-81
2021/01/21 01:52:56;;;;;;;1.27;1.00;;;12.70;92.10;;;;;;6148056;23;20422;-80
2021/01/21 01:55:23;;;;;;;0.80;0.73;;;12.80;91.90;;;;;;6147426;23;20442;-81
2021/01/21 01:57:54;;;;;;;0.80;0.80;;;12.90;91.60;;;;;;6148453;23;20776;-82
2021/01/21 02:00:21;;;;;;;4.07;1.20;;;12.90;91.50;;;;;;6147615;23;20449;-81
2021/01/21 02:02:51;;;;;;;0.83;0.83;;;12.90;91.50;;;;;;6122101;23;20753;-83
2021/01/21 02:05:19;;;;;;;1.77;1.10;;;13.00;91.30;;;;;;6148911;23;20494;-82
2021/01/21 02:07:46;;;;;;;1.27;0.90;;;13.00;91.30;;;;;;6124409;23;20415;-81
2021/01/21 02:10:15;;;;;;;1.97;0.90;;;13.00;91.20;;;;;;6123790;23;20446;-80
2021/01/21 02:12:59;;;;;;;1.37;1.00;;;13.00;91.20;;;;;;6125157;23;20403;-84
2021/01/21 02:15:52;;;;;;;1.77;0.90;;;13.10;91.20;;;;;;6124198;23;20434;-81
2021/01/21 02:18:36;;;;;;;2.40;1.00;;;13.00;91.20;;;;;;6083204;23;20419;-80
2021/01/21 02:21:40;;;;;;;1.40;0.97;;;13.10;91.40;;;;;;6149891;23;20666;-83
2021/01/21 02:24:45;;;;;;;0.97;0.80;;;13.10;91.20;;;;;;6123914;23;20410;-83
2021/01/21 02:27:15;;;;;;;0.80;0.70;;;13.30;90.90;;;;;;6149566;23;20403;-84
2021/01/21 02:29:42;;;;;;;2.73;1.17;;;13.30;90.90;;;;;;6126073;23;20501;-82
2021/01/21 02:32:08;;;;;;;2.43;1.40;;;13.30;90.80;;;;;;6125738;23;20415;-82
2021/01/21 02:34:40;;;;;;;1.63;0.80;;;13.30;90.80;;;;;;6126814;23;20541;-83
2021/01/21 02:37:18;;;;;;;2.40;1.20;;;13.20;90.90;;;;;;6153935;23;20796;-83
2021/01/21 02:39:48;;;;;;;2.53;1.23;;;13.20;91.00;;;;;;6126252;23;20427;-81
2021/01/21 02:42:16;;;;;;;1.17;0.90;;;13.30;91.00;;;;;;6128432;23;20466;-84
2021/01/21 02:44:42;;;;;;;1.00;0.60;;;13.30;90.80;;;;;;6154778;23;20450;-84
2021/01/21 02:47:10;;;;;;;2.50;0.90;;;13.30;90.80;;;;;;6128190;23;20410;-84
2021/01/21 02:49:37;;;;;;;0.93;0.80;;;13.30;91.00;;;;;;6129356;23;20491;-83
2021/01/21 02:52:18;;;;;;;1.00;0.80;;;13.30;91.00;;;;;;6127517;23;20406;-82
2021/01/21 02:54:53;;;;;;;0.90;0.90;;;13.10;91.20;;;;;;6126294;23;20426;-82
2021/01/21 02:57:33;;;;;;;1.97;1.30;;;13.20;91.20;;;;;;6127231;23;20475;-82
2021/01/21 03:00:06;;;;;;;1.23;0.90;;;13.20;91.20;;;;;;6152876;23;20425;-83
2021/01/21 03:02:36;;;;;;;3.40;1.10;;;13.20;91.40;;;;;;6151741;23;20886;-83
2021/01/21 03:05:03;;;;;;;2.20;1.10;;;13.20;91.50;;;;;;6153163;23;20419;-83
2021/01/21 03:07:32;;;;;;;0.90;0.73;;;13.20;91.50;;;;;;6165328;23;20407;-80
2021/01/21 03:09:58;;;;;;;1.40;0.80;;;13.20;91.60;;;;;;6165482;23;20918;-82
2021/01/21 03:12:27;;;;;;;3.60;1.00;;;13.20;91.80;;;;;;6163699;23;20414;-80
2021/01/21 03:14:55;;;;;;;1.63;1.53;;;13.10;91.90;;;;;;6166710;23;20453;-82
2021/01/21 03:17:24;;;;;;;2.13;0.93;;;13.10;91.90;;;;;;6138855;23;20418;-80
2021/01/21 03:19:51;;;;;;;1.17;0.90;;;13.20;91.90;;;;;;6139359;23;20507;-81
2021/01/21 03:22:18;;;;;;;2.53;1.13;;;13.20;91.80;;;;;;6144710;23;20458;-81
2021/01/21 03:24:44;;;;;;;0.90;0.90;;;13.20;91.80;;;;;;6171154;23;20506;-80
2021/01/21 03:27:11;;;;;;;0.80;0.73;;;13.20;91.90;;;;;;6170041;23;20862;-80
2021/01/21 03:29:37;;;;;;;2.23;1.00;;;13.20;91.90;;;;;;6165234;23;20394;-80
2021/01/21 03:32:04;;;;;;;1.17;0.97;;;13.20;92.00;;;;;;6142660;23;20403;-80
2021/01/21 03:34:31;;;;;;;0.70;0.70;;;13.10;92.00;;;;;;6135761;23;20391;-83
2021/01/21 03:36:57;;;;;;;1.27;0.80;;;13.20;92.00;;;;;;6154959;23;20415;-83
2021/01/21 03:39:24;;;;;;;0.63;0.63;;;13.20;91.90;;;;;;6128393;23;20449;-80
2021/01/21 03:41:51;;;;;;;1.27;0.63;;;13.30;92.00;;;;;;6152405;23;20469;-81
2021/01/21 03:44:19;;;;;;;2.10;1.00;;;13.30;91.90;;;;;;6127839;23;20450;-82
2021/01/21 03:46:45;;;;;;;1.27;0.60;;;13.30;91.90;;;;;;6153244;23;20426;-82
2021/01/21 03:49:12;;;;;;;1.33;0.80;;;13.20;92.20;;;;;;6126586;23;20417;-82
2021/01/21 03:51:38;;;;;;;0.73;0.73;;;13.30;92.00;;;;;;6127267;23;20415;-81
2021/01/21 03:54:05;;;;;;;0.90;0.60;;;13.30;91.90;;;;;;6153224;23;20417;-80
2021/01/21 03:56:31;;;;;;;0.60;0.60;;;13.30;92.00;;;;;;6152210;23;20439;-80
2021/01/21 03:58:57;;;;;;;0.90;0.77;;;13.40;92.10;;;;;;6151811;23;20458;-81
2021/01/21 04:01:23;;;;;;;1.93;0.80;;;13.30;92.00;;;;;;6153402;23;20426;-83
2021/01/21 04:03:50;;;;;;;0.60;0.60;;;13.30;92.00;;;;;;6127518;23;20473;-83
2021/01/21 04:06:17;;;;;;;0.93;0.73;;;13.40;92.20;;;;;;6128851;23;20481;-82
2021/01/21 04:08:43;;;;;;;2.50;1.03;;;13.20;92.30;;;;;;6154883;23;20403;-81
2021/01/21 04:11:09;;;;;;;1.27;0.80;;;13.30;92.40;;;;;;6126250;23;20466;-81
2021/01/21 04:13:36;;;;;;;0.93;0.83;;;13.30;92.30;;;;;;6156473;23;20411;-80
2021/01/21 04:16:02;;;;;;;0.60;0.60;;;13.30;92.50;;;;;;6141116;23;20431;-79
2021/01/21 04:18:30;;;;;;;2.10;0.70;;;13.30;92.70;;;;;;6139840;23;20414;-80
2021/01/21 04:20:56;;;;;;;1.17;0.90;;;13.30;92.80;;;;;;6156027;23;20446;-82
2021/01/21 04:23:22;;;;;;;1.07;1.00;;;13.30;92.90;;;;;;6129091;23;20439;-81
2021/01/21 04:25:49;;;;;;;1.03;0.60;;;13.30;92.90;;;;;;6127599;23;21293;-79
2021/01/21 04:28:15;;;;;;;1.53;1.03;;;13.20;93.00;;;;;;6128326;23;20961;-82
2021/01/21 04:30:42;;;;;;;0.60;0.60;;;13.30;93.10;;;;;;6154545;23;20418;-82
2021/01/21 04:33:08;;;;;;;1.67;0.83;;;13.20;93.20;;;;;;6127346;23;20494;-80
2021/01/21 04:35:35;;;;;;;0.70;0.70;;;13.30;93.40;;;;;;6128927;23;20442;-82
2021/01/21 04:38:01;;;;;;;1.87;0.80;;;13.30;93.40;;;;;;6156005;23;20395;-81
2021/01/21 04:40:28;;;;;;;0.80;0.80;;;13.30;93.50;;;;;;6129968;23;20928;-80
2021/01/21 04:42:55;;;;;;;1.90;0.70;;;13.20;93.60;;;;;;6155132;23;20419;-81
2021/01/21 04:45:22;;;;;;;0.63;0.60;;;13.20;93.80;;;;;;6125820;23;20506;-79
2021/01/21 04:47:49;;;;;;;0.73;0.53;;;13.20;93.90;;;;;;6151855;23;20418;-80
2021/01/21 04:50:18;;;;;;;1.77;0.60;;;13.20;94.00;;;;;;6125835;23;20418;-82
2021/01/21 04:52:47;;;;;;;2.83;0.80;;;13.20;94.20;;;;;;6151929;23;20449;-81
2021/01/21 04:55:30;;;;;;;1.03;0.73;;;13.20;94.40;;;;;;6122778;23;20954;-82
2021/01/21 04:58:09;;;;;;;1.90;0.70;;;13.20;94.60;;;;;;6149231;23;20395;-82
2021/01/21 05:00:40;;;;;;;1.47;0.70;;;13.10;95.00;;;;;;6123925;23;20833;-83
2021/01/21 05:03:08;;;;;;;1.63;0.80;;;13.10;95.40;;;;;;6125519;23;20415;-79
2021/01/21 05:05:35;;;;;;;0.50;0.50;;;13.10;95.60;;;;;;6125146;23;20902;-82
2021/01/21 05:08:03;;;;;;;1.90;0.80;;;13.00;95.80;;;;;;6124638;23;20425;-82
2021/01/21 05:10:29;;;;;;;0.50;0.50;;;13.00;96.00;;;;;;6149213;23;20505;-78
2021/01/21 05:12:57;;;;;;;1.40;0.60;;;13.00;96.20;;;;;;6123633;23;20423;-83
2021/01/21 05:15:23;;;;;;;1.30;0.60;;;13.00;96.50;;;;;;6158732;23;20431;-79
2021/01/21 05:17:49;;;;;;;0.93;0.57;;;12.90;96.70;;;;;;6136893;23;20471;-80
2021/01/21 05:20:15;;;;;;;2.03;0.80;;;13.00;96.90;;;;;;6162945;23;20449;-79
2021/01/21 05:22:42;;;;;;;0.70;0.70;;;12.90;97.00;;;;;;6137533;23;20760;-80
2021/01/21 05:25:09;;;;;;;0.50;0.50;;;13.00;97.10;;;;;;6136629;23;20423;-79
2021/01/21 05:27:35;;;;;;;0.93;0.70;;;13.00;97.10;;;;;;6137499;23;20727;-79
2021/01/21 05:30:04;;;;;;;0.90;0.67;;;13.00;97.20;;;;;;6162874;23;20442;-80
2021/01/21 05:32:31;;;;;;;0.90;0.90;;;13.00;97.40;;;;;;6138684;23;20684;-78
2021/01/21 05:34:59;;;;;;;0.60;0.57;;;13.10;97.50;;;;;;6123858;23;20533;-81
2021/01/21 05:37:27;;;;;;;0.43;0.43;;;13.00;97.50;;;;;;6141874;23;20419;-78
2021/01/21 05:39:54;;;;;;;1.17;0.63;;;13.10;97.60;;;;;;6171810;23;20418;-80
2021/01/21 05:42:23;;;;;;;0.83;0.73;;;13.10;97.80;;;;;;6145016;23;20451;-80
2021/01/21 05:44:49;;;;;;;0.87;0.60;;;13.00;98.60;;;;;;6163477;23;20949;-81
2021/01/21 05:47:15;;;;;;;3.97;1.13;;;12.80;99.80;;;;;;6153301;23;20522;-80
2021/01/21 05:49:41;;;;;;;3.00;0.90;;;12.20;97.20;;;;;;6144289;23;20414;-79
2021/01/21 05:52:08;;;;;;;1.67;1.57;;;11.00;98.80;;;;;;6146052;23;20419;-79
2021/01/21 05:54:35;;;;;;;1.60;0.70;;;10.20;99.90;;;;;;6145967;23;20423;-80
2021/01/21 05:57:02;;;;;;;1.70;0.70;;;9.70;99.90;;;;;;6170889;23;20422;-79
2021/01/21 05:59:29;;;;;;;0.90;0.67;;;9.40;99.90;;;;;;6134409;23;20541;-82
2021/01/21 06:01:56;;;;;;;3.23;0.63;;;9.20;99.90;;;;;;6122879;23;20446;-79
2021/01/21 06:04:27;;;;;;;3.30;0.70;;;9.20;99.90;;;;;;6122896;23;20414;-81
2021/01/21 06:06:54;;;;;;;2.00;0.50;;;8.90;99.90;;;;;;6120951;23;21216;-82
2021/01/21 06:09:28;;;;;;;1.33;0.50;;;8.90;99.90;;;;;;6121505;23;20980;-79
2021/01/21 06:11:59;;;;;;;1.10;0.50;;;8.80;99.90;;;;;;6121482;23;20445;-82
2021/01/21 06:14:26;;;;;;;0.90;0.60;;;8.80;99.90;;;;;;6121068;23;20428;-78
2021/01/21 06:16:54;;;;;;;1.10;0.60;;;8.80;99.90;;;;;;6156020;23;20443;-81
2021/01/21 06:19:20;;;;;;;1.10;0.70;;;8.60;99.90;;;;;;6141267;23;20399;-80
2021/01/21 06:21:49;;;;;;;1.60;0.77;;;8.60;99.90;;;;;;6141161;23;20620;-82
2021/01/21 06:24:18;;;;;;;2.30;1.00;;;8.70;99.90;;;;;;6171758;23;20417;-78
2021/01/21 06:26:51;;;;;;;1.60;0.90;;;8.60;99.90;;;;;;6144739;23;20464;-78
2021/01/21 06:29:19;;;;;;;1.83;1.00;;;8.70;99.90;;;;;;6144191;23;20399;-79
2021/01/21 06:32:00;;;;;;;2.33;0.90;;;8.70;99.90;;;;;;6148210;23;20392;-80
2021/01/21 06:35:07;;;;;;;2.33;0.93;;;8.80;99.90;;;;;;6154734;23;20414;-78
2021/01/21 06:37:47;;;;;;;3.37;1.00;;;8.80;99.90;;;;;;6140811;23;20406;-80
2021/01/21 06:40:28;;;;;;;5.53;1.00;;;8.90;99.90;;;;;;6156615;23;20411;-79
2021/01/21 06:43:14;;;;;;;2.27;0.67;;;9.00;99.90;;;;;;6131591;23;20403;-79
2021/01/21 06:45:52;;;;;;;2.40;0.67;;;9.00;99.90;;;;;;6131333;23;20439;-80
2021/01/21 06:48:21;;;;;;;5.83;1.17;;;9.10;99.90;;;;;;6131769;23;20894;-78
2021/01/21 06:51:02;;;;;;;2.03;0.73;;;9.00;99.90;;;;;;6131217;23;20430;-81
2021/01/21 06:53:28;;;;;;;3.10;0.83;;;8.90;99.90;;;;;;6130239;23;20962;-82
2021/01/21 06:56:02;;;;;;;1.63;0.80;;;8.90;99.90;;;;;;6129765;23;20470;-79
2021/01/21 06:58:53;;;;;;;1.30;0.73;;;8.80;99.90;;;;;;6158879;23;20453;-80
2021/01/21 07:01:39;;;;;;;1.90;1.00;;;8.80;99.90;;;;;;6142295;23;20501;-78
2021/01/21 07:04:18;;;;;;;1.80;0.63;;;9.00;99.90;;;;;;6132019;23;20395;-78
2021/01/21 07:06:54;;;;;;;1.40;1.00;;;8.90;99.90;;;;;;6166501;23;20426;-79
2021/01/21 07:09:31;;;;;;;2.77;0.90;;;9.20;99.90;;;;;;6140322;23;20490;-81
2021/01/21 07:12:06;;;;;;;0.97;0.53;;;9.00;99.90;;;;;;6131387;23;20417;-80
2021/01/21 07:15:30;;;;;;;0.83;0.50;;;9.00;99.90;;;;;;6153042;23;20465;-81
2021/01/21 07:18:40;;;;;;;1.03;1.03;;;9.10;99.90;;;;;;6156300;23;20418;-81
2021/01/21 07:21:17;;;;;;;1.67;0.50;;;9.10;99.90;;;;;;6154082;23;20963;-80
2021/01/21 07:24:02;;;;;;;0.80;0.70;;;9.10;99.90;;;;;;6153951;23;20414;-80
2021/01/21 07:27:09;;;;;;;3.23;0.90;;;9.10;99.90;;;;;;6130792;23;20446;-81
2021/01/21 07:29:38;;;;;;;2.33;0.90;;;9.10;99.90;;;;;;6133264;23;20410;-81
2021/01/21 07:32:10;;;;;;;1.70;0.77;;;9.00;99.90;;;;;;6157490;23;20419;-80
2021/01/21 07:34:44;;;;;;;0.90;0.70;;;9.00;99.90;;;;;;6131709;23;20398;-79
2021/01/21 07:37:24;;;;;;;1.77;0.83;;;8.90;99.90;;;;;;6131528;23;20454;-80
2021/01/21 07:40:04;;;;;;;1.10;0.80;;;9.00;99.90;;;;;;6132391;23;20427;-80
2021/01/21 07:42:36;;;;;;;1.97;0.70;;;9.10;99.90;;;;;;6131897;23;20538;-80
2021/01/21 07:45:20;;;;;;;2.30;0.90;;;9.00;99.90;;;;;;6128811;23;20734;-80
2021/01/21 07:47:53;;;;;;;1.47;0.50;;;9.10;99.90;;;;;;6151385;23;20450;-80
2021/01/21 07:50:21;;;;;;;0.73;0.50;;;9.10;99.90;;;;;;6151122;23;20471;-79
2021/01/21 07:52:49;;;;;;;1.63;1.43;;;9.00;99.90;;;;;;6155804;23;20439;-80
2021/01/21 07:55:41;;;;;;;1.73;0.70;;;9.10;99.90;;;;;;6151405;23;20449;-79
2021/01/21 07:58:38;;;;;;;0.83;0.60;;;9.30;99.90;;;;;;6130850;23;20422;-80
2021/01/21 08:01:09;;;;;;;1.87;0.80;;;9.30;99.90;;;;;;6126019;23;20447;-78
2021/01/21 08:03:48;;;;;;;1.40;0.60;;;9.30;99.90;;;;;;6128149;23;20395;-80
2021/01/21 08:06:25;;;;;;;0.60;0.60;;;9.20;99.90;;;;;;6130697;23;20423;-81
2021/01/21 08:08:54;;;;;;;2.00;0.90;;;9.10;99.90;;;;;;6131229;23;20652;-81
2021/01/21 08:11:23;;;;;;;0.80;0.80;;;9.10;99.90;;;;;;6153110;23;20418;-82
2021/01/21 08:13:57;;;;;;;1.43;0.50;;;9.00;99.90;;;;;;6128720;23;20402;-81
2021/01/21 08:16:23;;;;;;;1.37;1.00;;;9.30;99.90;;;;;;6154740;23;20517;-82
2021/01/21 08:18:59;;;;;;;1.90;0.87;;;9.30;99.90;;;;;;6152283;23;20462;-82
2021/01/21 08:21:26;;;;;;;2.23;0.80;;;9.40;99.90;;;;;;6127655;23;20439;-80
2021/01/21 08:24:08;;;;;;;0.63;0.60;;;9.40;99.90;;;;;;6150934;23;20513;-77
2021/01/21 08:26:36;;;;;;;0.90;0.70;;;9.30;99.90;;;;;;6154105;23;20438;-80
2021/01/21 08:29:09;;;;;;;1.17;0.80;;;9.30;99.90;;;;;;6153748;23;20411;-81
2021/01/21 08:31:47;;;;;;;1.67;0.70;;;9.30;99.90;;;;;;6156786;23;20656;-79
2021/01/21 08:34:21;;;;;;;1.40;0.80;;;9.30;99.90;;;;;;6138819;23;20518;-79
2021/01/21 08:36:48;;;;;;;2.00;0.60;;;9.10;99.90;;;;;;6145136;23;20409;-79
2021/01/21 08:39:15;;;;;;;1.00;0.60;;;9.10;99.90;;;;;;6145073;23;20491;-79
2021/01/21 08:41:44;;;;;;;0.57;0.57;;;9.20;99.90;;;;;;6171106;23;20454;-80
2021/01/21 08:44:17;;;;;;;0.97;0.50;;;9.10;99.90;;;;;;6137118;23;20414;-80
2021/01/21 08:46:58;;;;;;;1.27;0.90;;;9.10;99.90;;;;;;6136777;23;20420;-79
2021/01/21 08:49:26;;;;;;;0.90;0.70;;;9.10;99.90;;;;;;6162483;23;20478;-79
2021/01/21 08:52:07;;;;;;;4.03;0.70;;;9.10;99.90;;;;;;6131304;23;20443;-82
2021/01/21 08:54:35;;;;;;;1.70;1.03;;;9.00;99.90;;;;;;6153467;23;20753;-81
2021/01/21 08:57:12;;;;;;;1.20;0.63;;;8.90;99.90;;;;;;6155295;23;20411;-79
2021/01/21 08:59:39;;;;;;;1.27;0.67;;;9.00;99.90;;;;;;6157141;23;20493;-81
2021/01/21 09:02:05;;;;;;;4.00;1.10;;;9.00;99.90;;;;;;6164857;23;20438;-80
2021/01/21 09:04:35;;;;;;;3.17;0.67;;;9.10;99.90;;;;;;6165880;23;20411;-80
2021/01/21 09:07:03;;;;;;;1.43;0.70;;;9.20;99.90;;;;;;6139669;23;20914;-79
2021/01/21 09:09:37;;;;;;;0.80;0.60;;;9.10;99.90;;;;;;6165137;23;20883;-79
2021/01/21 09:12:16;;;;;;;1.43;0.70;;;9.20;99.90;;;;;;6144134;23;20415;-79
2021/01/21 09:14:44;;;;;;;2.93;0.70;;;9.20;99.90;;;;;;6143299;23;20680;-79
2021/01/21 09:17:15;;;;;;;5.23;1.07;;;9.20;99.90;;;;;;6164994;23;20907;-80
2021/01/21 09:19:45;;;;;;;0.70;0.70;;;9.20;99.90;;;;;;6137683;23;20418;-78
2021/01/21 09:22:29;;;;;;;0.60;0.60;;;9.30;99.90;;;;;;6134294;23;20522;-80
2021/01/21 09:25:21;;;;;;;0.70;0.60;;;9.30;99.90;;;;;;6139628;23;20431;-80
2021/01/21 09:27:55;;;;;;;2.30;1.10;;;9.40;99.90;;;;;;6137012;23;20426;-83
2021/01/21 09:30:22;;;;;;;0.97;0.60;;;9.40;99.90;;;;;;6167513;23;20770;-82
2021/01/21 09:32:56;;;;;;;1.10;0.90;;;9.50;99.90;;;;;;6154467;23;20406;-84
2021/01/21 09:35:45;;;;;;;;;;;;;;;;;;;;;
2021/01/21 09:38:12;;;;;;;1.67;0.90;;;9.60;99.90;;;;;;6154731;23;20406;-84
2021/01/21 09:40:38;;;;;;;3.67;2.67;;;9.40;99.90;;;;;;6152901;23;20882;-80
2021/01/21 09:43:05;;;;;;;1.97;0.83;;;9.20;99.90;;;;;;6152699;23;20470;-83
2021/01/21 09:45:32;;;;;;;0.90;0.73;;;9.30;99.90;;;;;;6153917;23;20502;-81
2021/01/21 09:47:59;;;;;;;3.00;0.90;;;9.40;99.90;;;;;;6128052;23;20415;-81
2021/01/21 09:50:27;;;;;;;1.63;1.10;;;9.40;99.90;;;;;;6153913;23;21318;-81
2021/01/21 09:52:54;;;;;;;1.70;1.10;;;10.70;98.90;;;;;;6136096;23;20494;-81
2021/01/21 09:55:23;;;;;;;3.00;1.10;;;12.10;93.90;;;;;;6140158;23;20431;-81
2021/01/21 10:02:42;;;;;;;1.90;1.03;;;14.10;89.10;;;;;;6068367;23;20480;-81
2021/01/21 10:13:07;;;;;;;1.77;0.90;;;13.60;86.10;;;;;;6052185;23;20557;-83
2021/01/21 10:16:16;;;;;;;3.67;1.40;;;13.20;88.50;;;;;;6004820;23;20466;-81
2021/01/21 10:19:02;;;;;;;2.30;1.00;;;12.80;90.30;;;;;;6098864;23;20430;-81
2021/01/21 10:21:29;;;;;;;5.20;0.90;;;12.00;90.80;;;;;;6150979;23;20435;-81
2021/01/21 10:24:29;;;;;;;;;;;;;;;;;;;;;
2021/01/21 10:27:49;;;;;;;;;;;;;;;;;;;;;
2021/01/21 10:31:07;;;;;;;2.63;0.90;;;10.90;94.20;;;;;;6040710;23;20446;-80
2021/01/21 10:34:11;;;;;;;2.20;0.97;;;10.80;94.70;;;;;;6042808;23;20431;-79
2021/01/21 10:37:18;;;;;;;0.63;0.60;;;10.70;94.70;;;;;;6151541;23;20546;-81
2021/01/21 10:48:28;;;;;;;2.03;0.67;;;10.60;94.50;;;;;;5863772;24;21220;-82
2021/01/21 10:57:07;;;;;;;3.17;0.97;;;10.30;94.70;;;;;;6148929;23;20427;-80
2021/01/21 11:00:08;;;;;;;;;;;;;;;;;;;;;
2021/01/21 11:16:00;;;;;;;1.90;0.60;;;10.60;94.00;;;;;;6144810;23;20585;-81
2021/01/21 11:19:27;;;;;;;2.70;0.87;;;10.60;93.50;;;;;;5864309;24;20521;-82
2021/01/21 11:22:22;;;;;;;2.00;0.97;;;10.30;93.90;;;;;;5876298;24;20460;-81
2021/01/21 11:26:03;;;;;;;;;;;;;;;;;;;;;
2021/01/21 11:29:20;;;;;;;1.63;0.70;;;10.50;94.40;;;;;;5873704;24;20426;-81
2021/01/21 11:31:46;;;;;;;1.70;0.70;;;10.60;93.80;;;;;;5890810;24;20414;-81
2021/01/21 11:34:15;;;;;;;0.80;0.80;;;10.50;94.30;;;;;;5891652;24;20415;-81
2021/01/21 11:36:55;;;;;;;3.17;0.90;;;10.70;94.10;;;;;;5949680;23;20463;-82
2021/01/21 11:39:25;;;;;;;3.00;1.03;;;10.70;93.50;;;;;;6005263;23;20430;-82
2021/01/21 11:41:55;;;;;;;3.50;0.73;;;10.50;93.70;;;;;;6020734;23;20459;-82
2021/01/21 11:44:22;;;;;;;3.20;1.00;;;10.50;93.60;;;;;;6022586;23;20428;-81
2021/01/21 11:46:56;;;;;;;0.57;0.57;;;10.60;93.90;;;;;;5999047;23;20428;-81
2021/01/21 11:49:23;;;;;;;0.80;0.80;;;10.80;93.20;;;;;;6012100;23;20420;-81
2021/01/21 11:51:58;;;;;;;4.10;1.00;;;10.70;93.60;;;;;;5990473;23;20483;-79
2021/01/21 11:54:51;;;;;;;0.97;0.70;;;10.70;93.20;;;;;;6024258;23;20490;-83
2021/01/21 11:57:23;;;;;;;4.53;0.90;;;10.70;93.50;;;;;;6004665;23;20485;-84
2021/01/21 12:00:03;;;;;;;1.20;0.80;;;10.90;93.30;;;;;;6027359;23;20436;-82
2021/01/21 12:03:04;;;;;;;2.40;0.90;;;10.90;92.90;;;;;;6023686;23;20455;-81
2021/01/21 12:05:43;;;;;;;4.83;1.17;;;10.90;93.10;;;;;;6047545;23;20466;-83
2021/01/21 12:08:30;;;;;;;2.80;1.20;;;10.90;93.10;;;;;;6128431;23;20416;-84
2021/01/21 12:10:59;;;;;;;0.83;0.70;;;10.90;92.90;;;;;;6131248;23;20391;-82
2021/01/21 12:13:34;;;;;;;2.77;0.80;;;11.10;92.60;;;;;;6123064;23;20416;-81
2021/01/21 12:16:00;;;;;;;1.20;0.60;;;11.00;92.70;;;;;;6095393;23;20490;-80
2021/01/21 12:19:19;;;;;;;;;;;;;;;;;;;;;
2021/01/21 12:21:45;;;;;;;3.27;1.47;;;10.80;93.00;;;;;;6116758;23;20490;-84
2021/01/21 12:24:15;;;;;;;2.40;0.80;;;10.80;92.70;;;;;;6093918;23;20467;-80
2021/01/21 12:26:43;;;;;;;1.90;0.77;;;11.00;92.60;;;;;;6093343;23;20448;-82
2021/01/21 12:29:17;;;;;;;1.70;0.70;;;11.00;92.50;;;;;;6119238;23;20440;-83
2021/01/21 12:31:46;;;;;;;3.27;1.20;;;10.90;92.70;;;;;;6092542;23;20431;-81
2021/01/21 12:34:12;;;;;;;10.23;8.00;;;11.30;92.00;;;;;;6117534;23;20499;-84
2021/01/21 12:36:41;;;;;;;2.00;0.80;;;11.10;92.10;;;;;;6119610;23;20827;-82
2021/01/21 12:39:12;;;;;;;1.73;1.43;;;11.30;91.50;;;;;;6118478;23;20434;-81
2021/01/21 12:41:51;;;;;;;3.00;0.97;;;11.20;91.30;;;;;;6094042;23;20506;-81
2021/01/21 12:52:49;;;;;;;2.80;1.30;;;11.30;91.20;;;;;;6098743;23;20529;-79
2021/01/21 12:55:55;;;;;;;;;;;;;;;;;;;;;
2021/01/21 12:59:38;;;;;;;9.73;0.87;;;11.20;91.10;;;;;;6134792;23;20411;-83
2021/01/21 13:03:40;;;;;;;3.07;0.80;;;11.10;91.10;;;;;;5994902;23;20453;-81
2021/01/21 13:06:03;;;;;;;3.50;0.90;;;11.10;91.30;;;;;;6000457;23;20457;-84
2021/01/21 13:08:57;;;;;;;1.73;0.60;;;11.00;91.20;;;;;;6119627;23;20471;-82
2021/01/21 13:34:45;;;;;;;1.00;0.60;;;10.90;91.20;;;;;;6119094;23;20494;-81
2021/01/21 13:37:38;;;;;;;1.50;1.00;;;11.00;91.50;;;;;;6081441;23;20463;-83
2021/01/21 13:40:28;;;;;;;0.73;0.70;;;11.10;91.10;;;;;;6058894;23;20407;-82
2021/01/21 13:43:18;;;;;;;1.47;0.70;;;10.90;90.80;;;;;;6071137;23;20548;-83
2021/01/21 13:45:51;;;;;;;1.37;0.80;;;11.00;91.30;;;;;;6072808;23;20765;-80
2021/01/21 13:48:40;;;;;;;0.70;0.70;;;11.10;91.50;;;;;;6067303;23;20416;-80
2021/01/21 13:52:04;;;;;;;0.70;0.50;;;11.00;91.20;;;;;;6106451;23;20393;-80
2021/01/21 13:55:26;;;;;;;1.90;0.73;;;10.90;91.30;;;;;;6068367;23;20455;-80
2021/01/21 13:58:51;;;;;;;3.20;1.27;;;11.00;91.40;;;;;;6025410;23;20411;-80
2021/01/21 14:02:03;;;;;;;;;;;;;;;;;;;;;
2021/01/21 14:04:31;;;;;;;1.13;0.60;;;11.00;91.10;;;;;;5995082;23;20462;-80
2021/01/21 14:07:21;;;;;;;1.63;0.60;;;10.90;91.10;;;;;;6066223;23;20420;-82
2021/01/21 14:13:48;;;;;;;1.00;0.60;;;10.90;91.30;;;;;;6038608;23;20423;-82
2021/01/21 14:17:00;;;;;;;1.80;0.60;;;10.80;91.30;;;;;;6048124;23;20433;-84
2021/01/21 14:19:47;;;;;;;5.03;1.03;;;10.80;91.30;;;;;;6003358;23;20416;-81
2021/01/21 14:25:42;;;;;;;2.17;0.60;;;10.90;91.10;;;;;;6100735;23;21394;-82
2021/01/21 14:28:41;;;;;;;0.60;0.50;;;10.80;91.30;;;;;;6213065;23;20495;-82
2021/01/21 14:32:11;;;;;;;1.70;0.50;;;10.90;91.50;;;;;;6128809;23;20412;-82
2021/01/21 14:34:45;;;;;;;3.23;1.03;;;11.00;91.30;;;;;;6190205;23;20433;-78
2021/01/21 14:37:27;;;;;;;3.30;0.90;;;10.90;91.30;;;;;;6168632;23;20394;-81
2021/01/21 14:40:19;;;;;;;1.70;0.80;;;10.80;91.50;;;;;;6196693;23;20448;-82
2021/01/21 14:43:26;;;;;;;3.17;0.80;;;10.90;91.60;;;;;;6166025;23;20452;-82
2021/01/21 14:46:44;;;;;;;2.63;0.80;;;10.90;91.80;;;;;;6192648;23;20432;-83
2021/01/21 14:52:48;;;;;;;1.03;0.80;;;10.90;91.30;;;;;;6088697;23;20433;-81
2021/01/21 14:55:32;;;;;;;4.30;1.00;;;10.80;91.70;;;;;;6103637;23;20598;-81
2021/01/21 15:01:54;;;;;;;4.10;0.90;;;10.80;91.70;;;;;;6059035;23;20836;-82
2021/01/21 15:04:46;;;;;;;4.77;1.07;;;10.80;91.60;;;;;;6152885;23;20904;-81
2021/01/21 15:07:36;;;;;;;2.40;0.80;;;10.70;91.60;;;;;;6189088;23;20809;-80